createdAt,value
2022-12-03T00:00:13.221Z,1.72
2022-12-03T00:02:40.657Z,1.73
2022-12-03T00:05:07.705Z,1.72
2022-12-03T00:07:34.156Z,1.72
2022-12-03T00:10:00.602Z,1.68
2022-12-03T00:12:27.021Z,1.66
2022-12-03T00:14:53.674Z,1.67
2022-12-03T00:17:20.269Z,1.67
2022-12-03T00:19:46.692Z,1.66
2022-12-03T00:22:13.166Z,1.60
2022-12-03T00:24:39.581Z,1.54
2022-12-03T00:27:06.013Z,1.54
2022-12-03T00:29:32.398Z,1.54
2022-12-03T00:31:58.844Z,1.51
2022-12-03T00:34:25.250Z,1.51
2022-12-03T00:36:51.710Z,1.47
2022-12-03T00:39:18.121Z,1.48
2022-12-03T00:41:44.572Z,1.49
2022-12-03T00:44:11.907Z,1.51
2022-12-03T00:46:38.468Z,1.51
2022-12-03T00:49:04.995Z,1.50
2022-12-03T00:51:31.396Z,1.53
2022-12-03T00:53:57.789Z,1.54
2022-12-03T00:56:24.209Z,1.53
2022-12-03T00:58:50.692Z,1.56
2022-12-03T01:01:17.143Z,1.54
2022-12-03T01:03:43.585Z,1.54
2022-12-03T01:06:10.038Z,1.49
2022-12-03T01:08:36.434Z,1.42
2022-12-03T01:11:02.835Z,1.41
2022-12-03T01:13:29.243Z,1.40
2022-12-03T01:15:55.740Z,1.41
2022-12-03T01:18:22.184Z,1.40
2022-12-03T01:20:48.649Z,1.39
2022-12-03T01:23:15.043Z,1.41
2022-12-03T01:25:41.465Z,1.42
2022-12-03T01:28:07.943Z,1.42
2022-12-03T01:30:54.377Z,1.40
2022-12-03T01:33:20.828Z,1.40
2022-12-03T01:35:47.302Z,1.35
2022-12-03T01:38:13.700Z,1.36
2022-12-03T01:40:40.111Z,1.37
2022-12-03T01:43:06.539Z,1.32
2022-12-03T01:45:32.950Z,1.34
2022-12-03T01:47:59.360Z,1.35
2022-12-03T01:50:33.249Z,1.30
2022-12-03T01:53:01.529Z,1.29
2022-12-03T01:55:28.120Z,1.27
2022-12-03T01:57:57.064Z,1.27
2022-12-03T02:00:27.039Z,1.26
2022-12-03T02:02:59.312Z,1.27
2022-12-03T02:05:28.555Z,1.27
2022-12-03T02:07:55.411Z,1.26
2022-12-03T02:10:25.900Z,1.28
2022-12-03T02:12:58.808Z,1.28
2022-12-03T02:15:25.741Z,1.30
2022-12-03T02:17:52.401Z,1.31
2022-12-03T02:20:18.909Z,1.33
2022-12-03T02:23:18.070Z,1.34
2022-12-03T02:25:44.478Z,1.36
2022-12-03T02:28:10.988Z,1.34
2022-12-03T02:30:37.567Z,1.35
2022-12-03T02:33:04.079Z,1.34
2022-12-03T02:35:33.339Z,1.35
2022-12-03T02:38:06.919Z,1.32
2022-12-03T02:40:33.892Z,1.33
2022-12-03T02:43:01.659Z,1.35
2022-12-03T02:45:34.732Z,1.35
2022-12-03T02:48:05.106Z,1.37
2022-12-03T02:50:36.948Z,1.35
2022-12-03T02:53:07.267Z,1.35
2022-12-03T02:55:37.100Z,1.34
2022-12-03T02:58:04.603Z,1.33
2022-12-03T03:00:31.265Z,1.35
2022-12-03T03:02:57.811Z,1.36
2022-12-03T03:05:24.415Z,1.36
2022-12-03T03:07:51.558Z,1.36
2022-12-03T03:10:21.190Z,1.36
2022-12-03T03:12:47.749Z,1.33
2022-12-03T03:15:14.554Z,1.34
2022-12-03T03:17:41.540Z,1.33
2022-12-03T03:20:09.382Z,1.31
2022-12-03T03:22:41.613Z,1.26
2022-12-03T03:25:12.693Z,1.27
2022-12-03T03:27:39.989Z,1.27
2022-12-03T03:30:07.219Z,1.27
2022-12-03T03:32:34.047Z,1.27
2022-12-03T03:35:00.692Z,1.28
2022-12-03T03:37:27.983Z,1.23
2022-12-03T03:39:54.852Z,1.23
2022-12-03T03:42:21.309Z,1.23
2022-12-03T03:44:48.116Z,1.21
2022-12-03T03:47:14.847Z,1.20
2022-12-03T03:49:41.855Z,1.21
2022-12-03T03:52:10.107Z,1.19
2022-12-03T03:54:36.613Z,1.18
2022-12-03T03:57:03.131Z,1.15
2022-12-03T03:59:29.647Z,1.16
2022-12-03T04:01:56.209Z,1.14
2022-12-03T04:04:24.312Z,1.17
2022-12-03T04:06:50.828Z,1.12
2022-12-03T04:09:17.258Z,1.12
2022-12-03T04:12:02.390Z,1.11
2022-12-03T04:14:28.827Z,1.11
2022-12-03T04:16:55.319Z,1.06
2022-12-03T04:19:21.748Z,1.07
2022-12-03T04:22:06.869Z,1.04
2022-12-03T04:24:33.276Z,1.03
2022-12-03T04:27:18.433Z,1.03
2022-12-03T04:29:44.890Z,1.01
2022-12-03T04:32:29.827Z,1.01
2022-12-03T04:35:14.978Z,1.00
2022-12-03T04:37:41.452Z,1.00
2022-12-03T04:40:28.396Z,0.95
2022-12-03T04:42:54.815Z,0.89
2022-12-03T04:45:21.236Z,0.92
2022-12-03T04:47:47.631Z,0.94
2022-12-03T04:50:14.059Z,0.96
2022-12-03T04:52:40.552Z,0.97
2022-12-03T04:55:07.299Z,0.95
2022-12-03T04:57:33.710Z,0.94
2022-12-03T05:00:00.120Z,0.94
2022-12-03T05:02:26.616Z,0.94
2022-12-03T05:04:53.268Z,0.94
2022-12-03T05:07:19.852Z,0.91
2022-12-03T05:09:46.252Z,0.89
2022-12-03T05:12:12.639Z,0.88
2022-12-03T05:14:39.045Z,0.86
2022-12-03T05:17:05.523Z,0.83
2022-12-03T05:19:50.617Z,0.82
2022-12-03T05:22:17.013Z,0.81
2022-12-03T05:24:43.428Z,0.78
2022-12-03T05:27:09.840Z,0.80
2022-12-03T05:29:36.267Z,0.81
2022-12-03T05:32:02.732Z,0.84
2022-12-03T05:34:29.163Z,0.84
2022-12-03T05:36:55.767Z,0.81
2022-12-03T05:39:22.215Z,0.79
2022-12-03T05:42:07.194Z,0.75
2022-12-03T05:44:33.584Z,0.74
2022-12-03T05:46:59.998Z,0.73
2022-12-03T05:49:26.379Z,0.74
2022-12-03T05:51:58.275Z,0.73
2022-12-03T05:54:25.211Z,0.76
2022-12-03T05:56:51.628Z,0.75
2022-12-03T05:59:18.084Z,0.74
2022-12-03T06:01:44.579Z,0.73
2022-12-03T06:04:10.978Z,0.73
2022-12-03T06:06:37.400Z,0.72
2022-12-03T06:09:04.121Z,0.72
2022-12-03T06:11:30.578Z,0.71
2022-12-03T06:13:56.998Z,0.71
2022-12-03T06:16:23.512Z,0.73
2022-12-03T06:18:49.954Z,0.74
2022-12-03T06:21:16.421Z,0.68
2022-12-03T06:23:44.740Z,0.66
2022-12-03T06:26:15.005Z,0.65
2022-12-03T06:28:46.199Z,0.66
2022-12-03T06:31:13.486Z,0.61
2022-12-03T06:33:39.930Z,0.60
2022-12-03T06:36:06.848Z,0.61
2022-12-03T06:38:33.280Z,0.58
2022-12-03T06:40:59.696Z,0.60
2022-12-03T06:43:26.144Z,0.57
2022-12-03T06:45:52.928Z,0.57
2022-12-03T06:48:19.350Z,0.56
2022-12-03T06:50:45.755Z,0.55
2022-12-03T06:53:12.176Z,0.56
2022-12-03T06:55:38.608Z,0.57
2022-12-03T06:58:05.015Z,0.59
2022-12-03T07:00:31.410Z,0.59
2022-12-03T07:02:57.879Z,0.59
2022-12-03T07:05:24.335Z,0.62
2022-12-03T07:07:52.326Z,0.66
2022-12-03T07:10:19.253Z,0.69
2022-12-03T07:12:45.690Z,0.68
2022-12-03T07:15:12.161Z,0.68
2022-12-03T07:17:38.698Z,0.68
2022-12-03T07:20:05.982Z,0.70
2022-12-03T07:22:32.461Z,0.70
2022-12-03T07:24:58.882Z,0.73
2022-12-03T07:27:25.336Z,0.74
2022-12-03T07:29:51.793Z,0.76
2022-12-03T07:32:18.219Z,0.80
2022-12-03T07:34:44.633Z,0.81
2022-12-03T07:37:11.170Z,0.84
2022-12-03T07:39:37.641Z,0.87
2022-12-03T07:42:04.241Z,0.89
2022-12-03T07:44:33.601Z,0.92
2022-12-03T07:47:00.230Z,0.93
2022-12-03T07:49:26.978Z,0.92
2022-12-03T07:51:54.268Z,0.91
2022-12-03T07:54:21.276Z,0.92
2022-12-03T07:56:48.162Z,0.93
2022-12-03T07:59:15.534Z,0.94
2022-12-03T08:01:42.127Z,0.94
2022-12-03T08:04:08.991Z,0.93
2022-12-03T08:06:35.388Z,0.95
2022-12-03T08:09:01.778Z,0.96
2022-12-03T08:11:28.831Z,0.99
2022-12-03T08:13:56.441Z,1.00
2022-12-03T08:16:23.074Z,0.97
2022-12-03T08:18:50.500Z,1.01
2022-12-03T08:21:19.066Z,1.03
2022-12-03T08:23:45.866Z,1.02
2022-12-03T08:26:20.881Z,1.02
2022-12-03T08:28:47.483Z,1.02
2022-12-03T08:31:19.681Z,1.02
2022-12-03T08:33:59.736Z,1.05
2022-12-03T08:36:30.080Z,1.11
2022-12-03T08:38:59.584Z,1.09
2022-12-03T08:41:44.643Z,1.12
2022-12-03T08:44:30.050Z,1.12
2022-12-03T08:47:09.284Z,1.15
2022-12-03T08:49:36.731Z,1.14
2022-12-03T08:52:11.698Z,1.16
2022-12-03T08:54:39.125Z,1.25
2022-12-03T08:57:25.517Z,1.31
2022-12-03T08:59:56.802Z,1.35
2022-12-03T09:02:30.890Z,1.37
2022-12-03T09:04:57.312Z,1.42
2022-12-03T09:07:23.752Z,1.42
2022-12-03T09:09:50.315Z,1.47
2022-12-03T09:12:16.799Z,1.48
2022-12-03T09:14:43.203Z,1.47
2022-12-03T09:17:09.743Z,1.49
2022-12-03T09:19:38.988Z,1.53
2022-12-03T09:22:07.806Z,1.52
2022-12-03T09:24:34.198Z,1.53
2022-12-03T09:27:00.642Z,1.58
2022-12-03T09:29:27.038Z,1.59
2022-12-03T09:31:53.552Z,1.57
2022-12-03T09:34:20.048Z,1.56
2022-12-03T09:36:46.520Z,1.55
2022-12-03T09:39:12.948Z,1.53
2022-12-03T09:41:39.434Z,1.51
2022-12-03T09:44:07.008Z,1.54
2022-12-03T09:46:36.354Z,1.55
2022-12-03T09:49:03.904Z,1.50
2022-12-03T09:51:32.295Z,1.49
2022-12-03T09:54:00.197Z,1.54
2022-12-03T09:56:26.628Z,1.57
2022-12-03T09:58:53.111Z,1.57
2022-12-03T10:01:19.581Z,1.57
2022-12-03T10:03:48.191Z,1.59
2022-12-03T10:06:18.960Z,1.60
2022-12-03T10:08:50.045Z,1.60
2022-12-03T10:11:17.957Z,1.63
2022-12-03T10:13:44.564Z,1.68
2022-12-03T10:16:16.873Z,1.69
2022-12-03T10:18:47.287Z,1.70
2022-12-03T10:21:36.446Z,1.74
2022-12-03T10:24:30.306Z,1.73
2022-12-03T10:26:58.626Z,1.73
2022-12-03T10:29:34.002Z,1.71
2022-12-03T10:32:07.144Z,1.66
2022-12-03T10:34:36.033Z,1.67
2022-12-03T10:37:12.828Z,1.70
2022-12-03T10:39:58.390Z,1.70
2022-12-03T10:42:27.635Z,1.69
2022-12-03T10:45:20.216Z,1.72
2022-12-03T10:48:05.169Z,1.69
2022-12-03T10:50:31.903Z,1.70
2022-12-03T10:52:58.310Z,1.68
2022-12-03T10:55:25.025Z,1.70
2022-12-03T10:57:51.744Z,1.74
2022-12-03T11:00:22.720Z,1.75
2022-12-03T11:02:56.120Z,1.77
2022-12-03T11:05:27.257Z,1.80
2022-12-03T11:07:53.943Z,1.81
2022-12-03T11:10:20.578Z,1.80
2022-12-03T11:13:24.712Z,1.78
2022-12-03T11:15:51.195Z,1.81
2022-12-03T11:18:37.524Z,1.76
2022-12-03T11:21:14.344Z,1.75
2022-12-03T11:23:46.900Z,1.74
2022-12-03T11:26:18.939Z,1.77
2022-12-03T11:28:46.011Z,1.77
2022-12-03T11:31:43.513Z,1.78
2022-12-03T11:34:18.844Z,1.78
2022-12-03T11:37:10.162Z,1.79
2022-12-03T11:39:52.418Z,1.78
2022-12-03T11:42:28.410Z,1.79
2022-12-03T11:45:03.942Z,1.80
2022-12-03T11:47:59.525Z,1.75
2022-12-03T11:50:41.628Z,1.76
2022-12-03T11:53:07.917Z,1.69
2022-12-03T11:55:37.769Z,1.69
2022-12-03T11:58:13.433Z,1.65
2022-12-03T12:00:48.141Z,1.66
2022-12-03T12:03:25.339Z,1.69
2022-12-03T12:06:15.724Z,1.73
2022-12-03T12:08:51.345Z,1.73
2022-12-03T12:11:19.672Z,1.76
2022-12-03T12:14:09.340Z,1.82
2022-12-03T12:16:51.125Z,1.85
2022-12-03T12:19:27.657Z,1.88
2022-12-03T12:21:54.675Z,1.88
2022-12-03T12:24:43.518Z,1.94
2022-12-03T12:27:12.094Z,1.99
2022-12-03T12:29:40.362Z,2.01
2022-12-03T12:32:16.246Z,2.10
2022-12-03T12:34:45.313Z,2.17
2022-12-03T12:37:12.977Z,2.24
2022-12-03T12:39:39.456Z,2.31
2022-12-03T12:42:23.513Z,2.31
2022-12-03T12:44:50.304Z,2.29
2022-12-03T12:47:16.817Z,2.32
2022-12-03T12:49:46.191Z,2.31
2022-12-03T12:52:16.566Z,2.24
2022-12-03T12:54:43.143Z,2.28
2022-12-03T12:57:14.234Z,2.26
2022-12-03T12:59:40.659Z,2.26
2022-12-03T13:02:30.349Z,2.27
2022-12-03T13:04:56.808Z,2.26
2022-12-03T13:07:23.326Z,2.28
2022-12-03T13:09:55.429Z,2.24
2022-12-03T13:12:23.442Z,2.18
2022-12-03T13:14:52.024Z,2.21
2022-12-03T13:17:25.943Z,2.20
2022-12-03T13:20:05.134Z,2.16
2022-12-03T13:22:33.788Z,2.13
2022-12-03T13:25:03.612Z,2.12
2022-12-03T13:27:30.245Z,2.10
2022-12-03T13:30:00.087Z,2.11
2022-12-03T13:32:36.531Z,2.07
2022-12-03T13:35:18.099Z,2.04
2022-12-03T13:37:44.802Z,2.03
2022-12-03T13:40:26.915Z,2.03
2022-12-03T13:42:54.286Z,2.00
2022-12-03T13:45:20.694Z,1.97
2022-12-03T13:47:54.059Z,1.95
2022-12-03T13:50:44.470Z,1.95
2022-12-03T13:53:14.020Z,1.89
2022-12-03T13:55:44.532Z,1.87
2022-12-03T13:58:11.076Z,1.87
2022-12-03T14:00:37.707Z,1.85
2022-12-03T14:03:04.546Z,1.83
2022-12-03T14:05:31.069Z,1.82
2022-12-03T14:08:02.268Z,1.82
2022-12-03T14:10:29.647Z,1.81
2022-12-03T14:12:56.581Z,1.78
2022-12-03T14:15:23.076Z,1.72
2022-12-03T14:17:49.545Z,1.73
2022-12-03T14:20:16.210Z,1.73
2022-12-03T14:22:42.709Z,1.71
2022-12-03T14:25:09.691Z,1.70
2022-12-03T14:27:36.574Z,1.69
2022-12-03T14:30:03.706Z,1.66
2022-12-03T14:32:30.262Z,1.74
2022-12-03T14:34:56.842Z,1.77
2022-12-03T14:37:23.321Z,1.77
2022-12-03T14:39:49.795Z,1.74
2022-12-03T14:42:16.935Z,1.70
2022-12-03T14:44:48.661Z,1.71
2022-12-03T14:47:17.692Z,1.68
2022-12-03T14:49:44.292Z,1.67
2022-12-03T14:52:12.552Z,1.65
2022-12-03T14:54:41.968Z,1.62
2022-12-03T14:57:09.162Z,1.59
2022-12-03T14:59:35.680Z,1.52
2022-12-03T15:02:02.366Z,1.50
2022-12-03T15:04:28.938Z,1.48
2022-12-03T15:06:55.368Z,1.48
2022-12-03T15:09:21.988Z,1.43
2022-12-03T15:11:48.547Z,1.43
2022-12-03T15:14:15.192Z,1.42
2022-12-03T15:16:42.143Z,1.35
2022-12-03T15:19:08.740Z,1.30
2022-12-03T15:21:35.280Z,1.30
2022-12-03T15:24:02.528Z,1.29
2022-12-03T15:26:29.328Z,1.27
2022-12-03T15:28:55.845Z,1.28
2022-12-03T15:31:22.373Z,1.29
2022-12-03T15:33:48.871Z,1.28
2022-12-03T15:36:15.427Z,1.30
2022-12-03T15:38:41.943Z,1.31
2022-12-03T15:41:21.352Z,1.33
2022-12-03T15:43:48.797Z,1.35
2022-12-03T15:46:15.527Z,1.36
2022-12-03T15:48:42.118Z,1.38
2022-12-03T15:51:08.667Z,1.39
2022-12-03T15:53:35.167Z,1.40
2022-12-03T15:56:01.716Z,1.38
2022-12-03T15:58:28.787Z,1.35
2022-12-03T16:00:55.323Z,1.31
2022-12-03T16:03:21.814Z,1.27
2022-12-03T16:05:48.312Z,1.22
2022-12-03T16:08:14.842Z,1.22
2022-12-03T16:10:41.361Z,1.21
2022-12-03T16:13:07.878Z,1.21
2022-12-03T16:15:35.223Z,1.18
2022-12-03T16:18:01.931Z,1.19
2022-12-03T16:20:28.444Z,1.17
2022-12-03T16:22:54.972Z,1.19
2022-12-03T16:25:21.565Z,1.16
2022-12-03T16:27:48.057Z,1.19
2022-12-03T16:30:14.757Z,1.19
2022-12-03T16:32:41.714Z,1.21
2022-12-03T16:35:08.401Z,1.22
2022-12-03T16:37:34.914Z,1.22
2022-12-03T16:40:01.513Z,1.24
2022-12-03T16:42:28.142Z,1.26
2022-12-03T16:45:12.235Z,1.24
2022-12-03T16:47:38.804Z,1.21
2022-12-03T16:50:11.568Z,1.23
2022-12-03T16:52:40.709Z,1.20
2022-12-03T16:55:07.686Z,1.18
2022-12-03T16:57:34.218Z,1.18
2022-12-03T17:00:01.091Z,1.17
2022-12-03T17:02:27.967Z,1.18
2022-12-03T17:04:54.690Z,1.19
2022-12-03T17:07:21.248Z,1.23
2022-12-03T17:09:47.727Z,1.22
2022-12-03T17:12:14.208Z,1.23
2022-12-03T17:14:40.711Z,1.24
2022-12-03T17:17:07.210Z,1.23
2022-12-03T17:19:33.697Z,1.24
2022-12-03T17:22:00.195Z,1.25
2022-12-03T17:24:27.738Z,1.27
2022-12-03T17:26:54.260Z,1.27
2022-12-03T17:29:20.759Z,1.29
2022-12-03T17:31:47.314Z,1.29
2022-12-03T17:34:13.895Z,1.29
2022-12-03T17:36:40.374Z,1.29
2022-12-03T17:39:06.841Z,1.30
2022-12-03T17:41:33.326Z,1.32
2022-12-03T17:43:59.811Z,1.30
2022-12-03T17:46:26.365Z,1.33
2022-12-03T17:48:52.912Z,1.34
2022-12-03T17:51:21.046Z,1.34
2022-12-03T17:53:47.551Z,1.34
2022-12-03T17:56:14.279Z,1.32
2022-12-03T17:58:40.806Z,1.34
2022-12-03T18:01:09.513Z,1.33
2022-12-03T18:03:36.748Z,1.31
2022-12-03T18:06:04.278Z,1.31
2022-12-03T18:08:30.899Z,1.29
2022-12-03T18:10:57.466Z,1.30
2022-12-03T18:13:24.020Z,1.29
2022-12-03T18:15:50.590Z,1.27
2022-12-03T18:18:17.090Z,1.25
2022-12-03T18:20:43.621Z,1.27
2022-12-03T18:23:10.182Z,1.23
2022-12-03T18:25:36.641Z,1.22
2022-12-03T18:28:03.119Z,1.23
2022-12-03T18:30:29.563Z,1.21
2022-12-03T18:32:56.002Z,1.21
2022-12-03T18:35:22.489Z,1.21
2022-12-03T18:37:50.112Z,1.19
2022-12-03T18:40:23.104Z,1.19
2022-12-03T18:42:49.551Z,1.21
2022-12-03T18:45:16.556Z,1.23
2022-12-03T18:47:43.232Z,1.23
2022-12-03T18:50:10.667Z,1.24
2022-12-03T18:52:37.375Z,1.23
2022-12-03T18:55:05.144Z,1.23
2022-12-03T18:57:31.645Z,1.24
2022-12-03T18:59:58.421Z,1.25
2022-12-03T19:02:54.249Z,1.23
2022-12-03T19:05:11.591Z,1.24
2022-12-03T19:07:38.297Z,1.18
2022-12-03T19:10:05.043Z,1.19
2022-12-03T19:12:32.961Z,1.16
2022-12-03T19:14:59.377Z,1.15
2022-12-03T19:17:27.150Z,1.15
2022-12-03T19:19:54.079Z,1.12
2022-12-03T19:22:20.957Z,1.13
2022-12-03T19:24:47.392Z,1.14
2022-12-03T19:27:14.183Z,1.13
2022-12-03T19:29:42.125Z,1.11
2022-12-03T19:32:08.973Z,1.10
2022-12-03T19:34:35.776Z,1.09
2022-12-03T19:37:02.194Z,1.09
2022-12-03T19:39:28.609Z,1.08
2022-12-03T19:41:55.019Z,1.09
2022-12-03T19:44:21.523Z,1.12
2022-12-03T19:46:49.544Z,1.15
2022-12-03T19:49:18.467Z,1.15
2022-12-03T19:51:45.196Z,1.14
2022-12-03T19:54:12.041Z,1.14
2022-12-03T19:56:38.701Z,1.16
2022-12-03T19:59:05.512Z,1.16
2022-12-03T20:01:34.057Z,1.15
2022-12-03T20:04:01.814Z,1.13
2022-12-03T20:06:30.375Z,1.13
2022-12-03T20:08:58.372Z,1.13
2022-12-03T20:11:27.282Z,1.12
2022-12-03T20:13:59.703Z,1.13
2022-12-03T20:16:26.960Z,1.13
2022-12-03T20:18:57.540Z,1.12
2022-12-03T20:21:24.089Z,1.10
2022-12-03T20:23:50.598Z,1.11
2022-12-03T20:26:20.259Z,1.12
2022-12-03T20:28:48.017Z,1.11
2022-12-03T20:31:17.290Z,1.14
2022-12-03T20:33:45.696Z,1.14
2022-12-03T20:36:13.320Z,1.13
2022-12-03T20:38:40.152Z,1.15
2022-12-03T20:41:11.949Z,1.12
2022-12-03T20:43:38.589Z,1.14
2022-12-03T20:46:31.579Z,1.16
2022-12-03T20:48:59.064Z,1.15
2022-12-03T20:51:27.804Z,1.15
2022-12-03T20:53:54.348Z,1.16
2022-12-03T20:56:26.466Z,1.15
2022-12-03T20:58:53.633Z,1.18
2022-12-03T21:01:26.510Z,1.18
2022-12-03T21:03:54.670Z,1.19
2022-12-03T21:06:21.823Z,1.19
2022-12-03T21:08:48.527Z,1.17
2022-12-03T21:11:18.146Z,1.16
2022-12-03T21:13:45.526Z,1.18
2022-12-03T21:16:14.254Z,1.17
2022-12-03T21:18:41.402Z,1.21
2022-12-03T21:21:09.039Z,1.21
2022-12-03T21:23:36.000Z,1.21
2022-12-03T21:26:13.062Z,1.20
2022-12-03T21:28:40.880Z,1.18
2022-12-03T21:31:09.561Z,1.18
2022-12-03T21:33:36.430Z,1.18
2022-12-03T21:36:03.794Z,1.19
2022-12-03T21:38:30.611Z,1.22
2022-12-03T21:40:57.663Z,1.22
2022-12-03T21:43:24.759Z,1.24
2022-12-03T21:45:51.587Z,1.21
2022-12-03T21:48:18.874Z,1.22
2022-12-03T21:50:45.748Z,1.23
2022-12-03T21:53:12.553Z,1.24
2022-12-03T21:55:40.599Z,1.26
2022-12-03T21:58:08.083Z,1.25
2022-12-03T22:00:34.607Z,1.24
2022-12-03T22:03:01.127Z,1.25
2022-12-03T22:05:27.572Z,1.24
2022-12-03T22:07:54.044Z,1.23
2022-12-03T22:10:20.623Z,1.22
2022-12-03T22:12:47.026Z,1.21
2022-12-03T22:15:18.494Z,1.18
2022-12-03T22:17:45.705Z,1.20
2022-12-03T22:20:12.688Z,1.19
2022-12-03T22:22:39.119Z,1.20
2022-12-03T22:25:05.683Z,1.23
2022-12-03T22:27:32.102Z,1.23
2022-12-03T22:29:58.518Z,1.22
2022-12-03T22:32:25.060Z,1.24
2022-12-03T22:34:51.482Z,1.24
2022-12-03T22:37:17.924Z,1.24
2022-12-03T22:39:44.356Z,1.24
2022-12-03T22:42:10.790Z,1.21
2022-12-03T22:44:37.202Z,1.22
2022-12-03T22:47:03.820Z,1.24
2022-12-03T22:49:30.249Z,1.24
2022-12-03T22:51:56.707Z,1.28
2022-12-03T22:54:24.273Z,1.26
2022-12-03T22:56:51.112Z,1.29
2022-12-03T22:59:17.577Z,1.30
2022-12-03T23:01:44.021Z,1.32
2022-12-03T23:04:11.315Z,1.35
2022-12-03T23:06:38.388Z,1.33
2022-12-03T23:09:06.424Z,1.31
2022-12-03T23:11:33.367Z,1.34
2022-12-03T23:13:59.853Z,1.35
2022-12-03T23:16:29.423Z,1.33
2022-12-03T23:18:58.305Z,1.35
2022-12-03T23:21:29.880Z,1.36
2022-12-03T23:24:00.805Z,1.36
2022-12-03T23:26:27.755Z,1.35
2022-12-03T23:28:54.740Z,1.34
2022-12-03T23:31:23.367Z,1.33
2022-12-03T23:33:50.941Z,1.31
2022-12-03T23:36:17.816Z,1.34
2022-12-03T23:38:44.731Z,1.32
2022-12-03T23:41:13.866Z,1.32
2022-12-03T23:43:40.984Z,1.33
2022-12-03T23:46:09.785Z,1.33
2022-12-03T23:48:36.576Z,1.33
2022-12-03T23:51:15.193Z,1.34
2022-12-03T23:53:41.781Z,1.36
2022-12-03T23:56:11.442Z,1.37
2022-12-03T23:58:38.567Z,1.37
